Time;durP1;ratioP1;P1;durP2;ratioP2;P2;SDS_P1;SDS_P2;PMS_P1;PMS_P2;Temp;Humidity;BMP_temperature;BMP_pressure;BME280_temperature;BME280_humidity;BME280_pressure;Samples;Min_cycle;Max_cycle;Signal;HPM_P1;HPM_P2
2023/02/01 00:02:17;;;;;;;16.80;11.10;;;9.10;99.90;;;;;;5050243;28;20868;-64
2023/02/01 00:04:43;;;;;;;17.60;11.10;;;9.00;99.90;;;;;;5052795;28;20185;-64
2023/02/01 00:07:09;;;;;;;17.10;10.93;;;9.10;99.90;;;;;;5052393;28;20452;-64
2023/02/01 00:09:34;;;;;;;16.20;10.80;;;9.20;99.90;;;;;;5052598;28;20182;-64
2023/02/01 00:12:02;;;;;;;18.43;11.20;;;9.20;99.90;;;;;;5052324;28;20877;-64
2023/02/01 00:14:28;;;;;;;16.67;10.53;;;9.10;99.90;;;;;;5052939;28;20261;-64
2023/02/01 00:16:54;;;;;;;13.40;8.83;;;9.20;99.90;;;;;;5044729;28;21013;-64
2023/02/01 00:19:20;;;;;;;14.70;8.73;;;9.20;99.90;;;;;;5040943;28;20431;-64
2023/02/01 00:21:45;;;;;;;13.23;9.03;;;9.20;99.90;;;;;;5034812;28;20170;-64
2023/02/01 00:24:11;;;;;;;14.00;8.60;;;9.10;99.90;;;;;;5052165;28;20166;-63
2023/02/01 00:26:42;;;;;;;12.97;8.13;;;9.10;99.90;;;;;;5052692;28;20779;-64
2023/02/01 00:29:15;;;;;;;14.93;9.60;;;9.10;99.90;;;;;;5050639;28;20431;-64
2023/02/01 00:31:41;;;;;;;10.27;6.97;;;9.10;99.90;;;;;;5050378;28;20770;-64
2023/02/01 00:34:09;;;;;;;8.73;7.07;;;9.10;99.90;;;;;;5051986;28;20415;-64
2023/02/01 00:36:34;;;;;;;11.30;7.30;;;9.10;99.90;;;;;;5051575;28;20523;-64
2023/02/01 00:39:00;;;;;;;11.97;6.77;;;9.00;99.90;;;;;;5051920;28;20491;-65
2023/02/01 00:41:26;;;;;;;14.47;6.43;;;9.00;99.90;;;;;;5049838;28;20232;-64
2023/02/01 00:43:52;;;;;;;11.07;6.07;;;9.00;99.90;;;;;;5052547;28;20200;-64
2023/02/01 00:46:19;;;;;;;10.77;6.13;;;8.90;99.90;;;;;;5051780;28;20448;-64
2023/02/01 00:48:45;;;;;;;7.73;6.03;;;8.90;99.90;;;;;;5052168;28;20184;-64
2023/02/01 00:51:13;;;;;;;8.33;5.80;;;8.90;99.90;;;;;;5050660;28;20500;-64
2023/02/01 00:53:40;;;;;;;10.40;5.80;;;8.90;99.90;;;;;;5052329;28;20774;-64
2023/02/01 00:56:06;;;;;;;8.83;5.60;;;8.80;99.90;;;;;;5047435;28;20800;-64
2023/02/01 00:58:32;;;;;;;14.70;6.20;;;8.80;99.90;;;;;;5032476;28;20463;-64
2023/02/01 01:01:07;;;;;;;8.60;4.90;;;8.80;99.90;;;;;;5032507;28;20397;-64
2023/02/01 01:03:36;;;;;;;7.90;5.10;;;8.90;99.90;;;;;;5034625;28;20457;-64
2023/02/01 01:06:19;;;;;;;8.33;5.00;;;8.90;99.90;;;;;;5033755;28;20966;-65
2023/02/01 01:08:44;;;;;;;13.80;5.10;;;8.90;99.90;;;;;;5053060;28;20404;-64
2023/02/01 01:11:13;;;;;;;11.23;4.87;;;8.90;99.90;;;;;;5054548;28;20435;-64
2023/02/01 01:13:40;;;;;;;9.83;4.33;;;8.90;99.90;;;;;;5056316;28;20177;-64
2023/02/01 01:16:07;;;;;;;13.93;4.30;;;8.90;99.90;;;;;;5055909;28;20507;-64
2023/02/01 01:18:34;;;;;;;6.47;4.57;;;9.00;99.90;;;;;;5054800;28;20439;-64
2023/02/01 01:21:00;;;;;;;11.10;5.50;;;8.90;99.90;;;;;;5038240;28;20418;-64
2023/02/01 01:23:26;;;;;;;6.20;4.37;;;8.90;99.90;;;;;;5054052;28;20506;-64
2023/02/01 01:25:52;;;;;;;8.80;5.50;;;8.90;99.90;;;;;;5056211;28;20491;-64
2023/02/01 01:28:18;;;;;;;11.60;5.00;;;8.90;99.90;;;;;;5055114;28;21038;-64
2023/02/01 01:30:43;;;;;;;7.67;4.57;;;8.90;99.90;;;;;;5033731;28;20763;-64
2023/02/01 01:33:09;;;;;;;6.57;4.20;;;8.90;99.90;;;;;;5053369;28;20209;-64
2023/02/01 01:35:35;;;;;;;12.50;5.70;;;8.90;99.90;;;;;;5021050;28;20268;-64
2023/02/01 01:38:01;;;;;;;9.03;4.70;;;8.90;99.90;;;;;;5035932;28;20186;-64
2023/02/01 01:40:28;;;;;;;9.17;5.80;;;8.90;99.90;;;;;;5034622;28;20702;-64
2023/02/01 01:42:55;;;;;;;7.30;5.57;;;8.90;99.90;;;;;;5035653;28;20444;-64
2023/02/01 01:45:23;;;;;;;14.10;5.90;;;8.90;99.90;;;;;;5054750;28;20424;-64
2023/02/01 01:47:59;;;;;;;8.70;5.50;;;8.90;99.90;;;;;;5055323;28;20451;-64
2023/02/01 01:50:29;;;;;;;8.03;5.30;;;8.90;99.90;;;;;;5027918;28;20440;-64
2023/02/01 01:52:58;;;;;;;9.17;5.70;;;8.80;99.90;;;;;;5036030;28;20428;-64
2023/02/01 01:55:27;;;;;;;10.30;6.00;;;8.80;99.90;;;;;;5034876;28;20683;-64
2023/02/01 01:57:59;;;;;;;10.33;6.17;;;8.90;99.90;;;;;;5035514;28;20420;-64
2023/02/01 02:00:25;;;;;;;13.00;6.90;;;8.90;99.90;;;;;;5034594;28;20397;-64
2023/02/01 02:02:58;;;;;;;11.90;6.67;;;8.80;99.90;;;;;;5052819;28;20919;-64
2023/02/01 02:05:24;;;;;;;9.30;6.30;;;8.90;99.90;;;;;;5054778;28;20397;-64
2023/02/01 02:07:53;;;;;;;14.80;7.57;;;8.80;99.90;;;;;;5055181;28;20460;-64
2023/02/01 02:10:19;;;;;;;10.23;6.27;;;8.90;99.90;;;;;;5054559;28;20959;-64
2023/02/01 02:12:48;;;;;;;10.63;6.90;;;8.80;99.90;;;;;;5037188;28;20424;-64
2023/02/01 02:15:16;;;;;;;12.87;6.43;;;8.80;99.90;;;;;;5054507;28;20408;-64
2023/02/01 02:18:12;;;;;;;13.07;6.33;;;8.90;99.90;;;;;;5053605;28;20951;-64
2023/02/01 02:20:37;;;;;;;10.33;5.77;;;8.90;99.90;;;;;;5054534;28;20397;-64
2023/02/01 02:23:16;;;;;;;10.67;5.93;;;8.90;99.90;;;;;;5054971;28;20427;-64
2023/02/01 02:25:47;;;;;;;10.70;6.00;;;8.90;99.90;;;;;;5055116;28;20161;-64
2023/02/01 02:28:13;;;;;;;12.90;5.93;;;8.80;99.90;;;;;;5053881;28;21046;-64
2023/02/01 02:31:16;;;;;;;12.03;5.63;;;8.80;99.90;;;;;;5054052;28;20496;-65
2023/02/01 02:34:04;;;;;;;10.33;6.50;;;8.80;99.90;;;;;;5034933;28;20173;-64
2023/02/01 02:36:36;;;;;;;12.33;6.20;;;8.80;99.90;;;;;;5020043;28;20436;-66
2023/02/01 02:39:11;;;;;;;13.53;4.90;;;8.80;99.90;;;;;;5054628;28;20400;-64
2023/02/01 02:47:48;;;;;;;16.20;5.40;;;8.70;99.90;;;;;;5034015;28;20449;-64
2023/02/01 03:04:27;;;;;;;9.00;4.73;;;8.50;99.90;;;;;;5053361;28;20424;-64
2023/02/01 03:06:54;;;;;;;9.30;4.20;;;8.60;99.90;;;;;;5035245;28;20447;-64
2023/02/01 03:09:26;;;;;;;10.80;4.87;;;8.60;99.90;;;;;;5053740;28;20428;-64
2023/02/01 03:14:46;;;;;;;11.13;4.40;;;8.40;99.90;;;;;;5034355;28;20409;-64
2023/02/01 03:17:18;;;;;;;6.10;4.57;;;8.50;99.90;;;;;;5046094;28;20447;-64
2023/02/01 03:19:49;;;;;;;10.17;4.97;;;8.40;99.90;;;;;;5036388;28;20431;-64
2023/02/01 03:22:31;;;;;;;9.27;5.10;;;8.40;99.90;;;;;;5035527;28;20416;-64
2023/02/01 03:25:06;;;;;;;7.37;3.67;;;8.40;99.90;;;;;;5052672;28;20442;-64
2023/02/01 03:27:42;;;;;;;12.63;3.90;;;8.50;99.90;;;;;;5042858;28;20460;-64
2023/02/01 03:30:07;;;;;;;7.57;3.97;;;8.60;99.90;;;;;;5033867;28;20475;-64
2023/02/01 03:32:58;;;;;;;8.77;3.90;;;8.60;99.90;;;;;;5032073;28;20413;-64
2023/02/01 03:35:28;;;;;;;11.33;3.80;;;8.60;99.90;;;;;;5032678;28;20187;-64
2023/02/01 03:38:32;;;;;;;7.83;3.97;;;8.60;99.90;;;;;;5033156;28;20456;-64
2023/02/01 03:41:08;;;;;;;13.60;4.57;;;8.50;99.90;;;;;;5023874;28;20476;-64
2023/02/01 03:43:42;;;;;;;9.90;4.50;;;8.50;99.90;;;;;;5052934;28;20423;-64
2023/02/01 03:46:16;;;;;;;5.30;3.80;;;8.40;99.90;;;;;;5035607;28;20921;-64
2023/02/01 03:48:44;;;;;;;9.90;4.50;;;8.40;99.90;;;;;;5053489;28;20773;-63
2023/02/01 03:51:11;;;;;;;12.40;4.20;;;8.30;99.90;;;;;;5053083;28;20427;-63
2023/02/01 03:53:38;;;;;;;7.70;3.90;;;8.40;99.90;;;;;;5053110;28;20896;-64
2023/02/01 03:56:05;;;;;;;6.27;4.10;;;8.40;99.90;;;;;;5051455;28;20755;-67
2023/02/01 03:58:31;;;;;;;9.43;4.47;;;8.30;99.90;;;;;;5032590;28;20493;-64
2023/02/01 04:00:59;;;;;;;9.10;4.30;;;8.40;99.90;;;;;;5015823;28;20440;-64
2023/02/01 04:03:26;;;;;;;12.70;4.30;;;8.40;99.90;;;;;;5037913;28;20238;-64
2023/02/01 04:05:53;;;;;;;13.50;4.60;;;8.40;99.90;;;;;;5034316;28;20511;-64
2023/02/01 04:08:20;;;;;;;14.43;4.70;;;8.40;99.90;;;;;;5052430;28;20847;-63
2023/02/01 04:10:46;;;;;;;8.70;4.17;;;8.50;99.90;;;;;;5045913;28;20436;-63
2023/02/01 04:13:11;;;;;;;8.23;3.87;;;8.40;99.90;;;;;;5051852;28;20415;-63
2023/02/01 04:15:37;;;;;;;7.00;4.33;;;8.40;99.90;;;;;;5034586;28;20204;-63
2023/02/01 04:18:03;;;;;;;11.17;4.50;;;8.50;99.90;;;;;;5052559;28;20491;-62
2023/02/01 04:20:29;;;;;;;6.13;3.70;;;8.40;99.90;;;;;;5017976;28;20178;-63
2023/02/01 04:22:55;;;;;;;8.37;3.97;;;8.40;99.90;;;;;;5035014;28;20967;-62
2023/02/01 04:25:20;;;;;;;7.57;4.47;;;8.40;99.90;;;;;;5050441;28;20228;-63
2023/02/01 04:27:46;;;;;;;8.57;4.80;;;8.40;99.90;;;;;;5034776;28;20661;-63
2023/02/01 04:30:13;;;;;;;7.87;5.80;;;8.40;99.90;;;;;;5016030;28;20201;-63
2023/02/01 04:32:39;;;;;;;8.97;5.33;;;8.40;99.90;;;;;;5032739;28;20178;-62
2023/02/01 04:35:06;;;;;;;5.70;3.80;;;8.40;99.90;;;;;;5013985;28;20516;-63
2023/02/01 04:37:32;;;;;;;6.60;4.80;;;8.40;99.90;;;;;;5042285;28;20439;-63
2023/02/01 04:39:58;;;;;;;7.20;5.20;;;8.40;99.90;;;;;;5049647;28;20990;-63
2023/02/01 04:42:23;;;;;;;15.20;5.40;;;8.40;99.90;;;;;;5051982;28;20236;-64
2023/02/01 04:44:49;;;;;;;8.33;4.73;;;8.30;99.90;;;;;;5052153;28;20174;-61
2023/02/01 04:47:15;;;;;;;8.83;4.43;;;8.30;99.90;;;;;;5050669;28;20244;-64
2023/02/01 04:49:41;;;;;;;7.67;5.20;;;8.30;99.90;;;;;;5052220;28;20256;-63
2023/02/01 04:52:07;;;;;;;7.70;4.70;;;8.20;99.90;;;;;;5051469;28;20442;-63
2023/02/01 04:54:33;;;;;;;10.90;4.57;;;8.30;99.90;;;;;;5050884;28;20414;-64
2023/02/01 04:56:59;;;;;;;9.40;4.07;;;8.30;99.90;;;;;;5032870;28;20472;-62
2023/02/01 04:59:25;;;;;;;15.47;4.70;;;8.30;99.90;;;;;;5031893;28;20793;-62
2023/02/01 05:01:51;;;;;;;10.83;4.37;;;8.20;99.90;;;;;;5051859;28;20435;-62
2023/02/01 05:04:18;;;;;;;9.30;4.17;;;8.20;99.90;;;;;;5055318;28;20424;-62
2023/02/01 05:06:44;;;;;;;12.50;5.30;;;8.20;99.90;;;;;;5049080;28;20205;-62
2023/02/01 05:09:12;;;;;;;8.93;4.50;;;8.20;99.90;;;;;;5044893;28;20425;-62
2023/02/01 05:14:23;;;;;;;11.00;4.73;;;8.20;99.90;;;;;;5040168;28;20432;-62
2023/02/01 05:16:48;;;;;;;11.43;5.77;;;8.10;99.90;;;;;;5034565;28;20416;-62
2023/02/01 05:19:14;;;;;;;8.53;5.03;;;8.10;99.90;;;;;;5034396;28;20182;-63
2023/02/01 05:21:40;;;;;;;14.13;5.93;;;8.10;99.90;;;;;;5033908;28;20217;-63
2023/02/01 05:24:13;;;;;;;7.30;5.17;;;8.10;99.90;;;;;;5052550;28;20633;-63
2023/02/01 05:26:42;;;;;;;11.10;5.87;;;8.10;99.90;;;;;;5031411;28;20202;-63
2023/02/01 05:29:09;;;;;;;18.97;5.80;;;8.10;99.90;;;;;;5052131;28;20400;-63
2023/02/01 05:31:36;;;;;;;12.30;5.30;;;8.30;99.90;;;;;;5050586;28;20456;-63
2023/02/01 05:34:01;;;;;;;13.17;5.87;;;8.10;99.90;;;;;;5051811;28;20424;-63
2023/02/01 05:36:27;;;;;;;9.50;4.43;;;8.20;99.90;;;;;;5051454;28;20426;-64
2023/02/01 05:38:53;;;;;;;17.97;4.73;;;8.20;99.90;;;;;;5051740;28;20176;-64
2023/02/01 05:41:19;;;;;;;12.77;4.90;;;8.20;99.90;;;;;;5047654;28;20225;-68
2023/02/01 05:43:45;;;;;;;8.87;5.90;;;8.20;99.90;;;;;;5041133;28;20431;-64
2023/02/01 05:46:12;;;;;;;11.93;5.87;;;8.20;99.90;;;;;;5051321;28;20232;-64
2023/02/01 05:48:41;;;;;;;9.63;4.70;;;8.20;99.90;;;;;;5047540;28;20589;-64
2023/02/01 05:51:07;;;;;;;7.63;4.47;;;8.20;99.90;;;;;;5034619;28;20939;-63
2023/02/01 05:53:33;;;;;;;9.47;5.20;;;8.20;99.90;;;;;;5031367;28;20456;-63
2023/02/01 05:55:59;;;;;;;13.80;5.80;;;8.30;99.90;;;;;;5045308;28;20524;-64
2023/02/01 05:58:25;;;;;;;11.67;5.90;;;8.30;99.90;;;;;;5054908;28;20169;-64
2023/02/01 06:00:50;;;;;;;8.87;5.00;;;8.30;99.90;;;;;;5055534;28;20174;-63
2023/02/01 06:03:16;;;;;;;7.57;5.40;;;8.30;99.90;;;;;;5055186;28;20177;-63
2023/02/01 06:05:44;;;;;;;11.83;5.13;;;8.30;99.90;;;;;;5040861;28;20190;-63
2023/02/01 06:08:10;;;;;;;7.80;4.30;;;8.30;99.90;;;;;;5035253;28;20205;-63
2023/02/01 06:10:36;;;;;;;11.57;4.90;;;8.30;99.90;;;;;;5034895;28;20413;-63
2023/02/01 06:13:02;;;;;;;12.27;5.67;;;8.20;99.90;;;;;;5028876;28;20908;-63
2023/02/01 06:15:28;;;;;;;15.63;6.40;;;8.30;99.90;;;;;;5035260;28;20564;-63
2023/02/01 06:17:54;;;;;;;11.30;4.87;;;8.20;99.90;;;;;;5040903;28;20542;-63
2023/02/01 06:20:20;;;;;;;12.73;5.00;;;8.20;99.90;;;;;;5054721;28;20173;-68
2023/02/01 06:22:46;;;;;;;7.33;4.23;;;8.20;99.90;;;;;;5040481;28;20424;-63
2023/02/01 06:25:12;;;;;;;11.30;4.10;;;8.20;99.90;;;;;;5036640;28;21003;-63
2023/02/01 06:27:37;;;;;;;10.43;5.60;;;8.20;99.90;;;;;;5047385;28;20653;-63
2023/02/01 06:30:06;;;;;;;12.63;6.00;;;8.30;99.90;;;;;;5054961;28;20249;-63
2023/02/01 06:32:32;;;;;;;11.67;5.90;;;8.20;99.90;;;;;;5036463;28;20185;-63
2023/02/01 06:34:57;;;;;;;10.90;4.33;;;8.20;99.90;;;;;;5054951;28;20415;-63
2023/02/01 06:37:25;;;;;;;11.87;5.33;;;8.30;99.90;;;;;;5036347;28;20912;-63
2023/02/01 06:39:51;;;;;;;16.90;6.50;;;8.30;99.90;;;;;;5021503;28;20186;-61
2023/02/01 06:42:17;;;;;;;16.00;6.10;;;8.30;99.90;;;;;;5034723;28;20479;-62
2023/02/01 06:44:43;;;;;;;14.23;5.77;;;8.30;99.90;;;;;;5033772;28;20825;-62
2023/02/01 06:47:08;;;;;;;13.80;5.37;;;8.40;99.90;;;;;;5016944;28;20457;-62
2023/02/01 06:49:34;;;;;;;12.63;6.10;;;8.30;99.90;;;;;;5036816;28;20193;-63
2023/02/01 06:52:00;;;;;;;9.87;5.13;;;8.30;99.90;;;;;;5034129;28;20409;-63
2023/02/01 06:54:27;;;;;;;12.47;5.10;;;8.30;99.90;;;;;;5037185;28;20185;-66
2023/02/01 06:56:53;;;;;;;11.17;5.07;;;8.30;99.90;;;;;;5041705;28;20478;-63
2023/02/01 06:59:18;;;;;;;10.33;5.50;;;8.30;99.90;;;;;;5015312;28;20461;-63
2023/02/01 07:01:44;;;;;;;7.47;4.50;;;8.30;99.90;;;;;;5048064;28;20833;-63
2023/02/01 07:04:11;;;;;;;7.00;4.40;;;8.30;99.90;;;;;;5032675;28;20181;-63
2023/02/01 07:06:38;;;;;;;15.63;5.47;;;8.30;99.90;;;;;;5043816;28;20212;-65
2023/02/01 07:09:03;;;;;;;9.60;5.37;;;8.30;99.90;;;;;;5036123;28;20447;-64
2023/02/01 07:11:30;;;;;;;11.77;6.20;;;8.40;99.90;;;;;;5053639;28;20426;-64
2023/02/01 07:13:56;;;;;;;12.20;5.10;;;8.30;99.90;;;;;;5038251;28;20511;-64
2023/02/01 07:16:21;;;;;;;11.03;5.40;;;8.30;99.90;;;;;;5034174;28;20897;-64
2023/02/01 07:18:49;;;;;;;8.77;4.70;;;8.40;99.90;;;;;;5033491;28;20179;-64
2023/02/01 07:21:15;;;;;;;9.20;5.20;;;8.30;99.90;;;;;;5033992;28;20174;-67
2023/02/01 07:23:40;;;;;;;8.70;6.20;;;8.80;99.90;;;;;;5050583;28;20420;-66
2023/02/01 07:26:09;;;;;;;11.27;6.47;;;9.30;99.90;;;;;;5000060;28;20208;-66
2023/02/01 07:28:35;;;;;;;9.80;5.50;;;9.90;99.90;;;;;;5032746;28;20183;-67
2023/02/01 07:31:18;;;;;;;7.90;5.23;;;10.60;99.90;;;;;;5047915;28;20413;-67
2023/02/01 07:33:44;;;;;;;8.50;5.10;;;10.90;99.90;;;;;;5037967;28;20683;-66
2023/02/01 07:36:16;;;;;;;11.30;6.13;;;11.40;99.90;;;;;;5021092;28;20422;-64
2023/02/01 07:38:42;;;;;;;9.07;5.30;;;11.80;99.90;;;;;;5025446;28;20435;-64
2023/02/01 07:41:08;;;;;;;10.57;4.93;;;11.60;99.90;;;;;;5033567;28;20472;-64
2023/02/01 07:43:35;;;;;;;11.43;5.10;;;11.10;99.50;;;;;;5014253;28;20469;-64
2023/02/01 07:46:01;;;;;;;7.87;4.47;;;10.60;99.90;;;;;;5045319;28;20526;-64
2023/02/01 07:48:28;;;;;;;11.43;5.03;;;10.20;99.90;;;;;;5043290;28;20513;-63
2023/02/01 07:50:58;;;;;;;9.83;4.33;;;9.90;99.90;;;;;;5040734;28;20771;-63
2023/02/01 07:53:24;;;;;;;12.20;5.03;;;9.70;99.90;;;;;;5049257;28;20425;-63
2023/02/01 07:55:50;;;;;;;14.93;4.83;;;9.50;99.90;;;;;;5040511;28;20421;-64
2023/02/01 07:58:15;;;;;;;10.17;5.27;;;9.50;99.90;;;;;;5033415;28;20177;-81
2023/02/01 08:03:26;;;;;;;8.63;6.40;;;9.10;99.90;;;;;;5049868;28;20209;-72
2023/02/01 08:05:55;;;;;;;10.23;4.40;;;8.90;99.90;;;;;;5033009;28;20404;-72
2023/02/01 08:08:22;;;;;;;10.67;5.10;;;9.00;99.90;;;;;;5033112;28;20395;-72
2023/02/01 08:10:47;;;;;;;10.57;5.70;;;8.90;99.90;;;;;;5032766;28;20428;-73
2023/02/01 08:13:13;;;;;;;12.73;5.83;;;8.90;99.90;;;;;;5043501;28;20436;-73
2023/02/01 08:15:39;;;;;;;9.20;5.90;;;8.80;99.90;;;;;;5054224;28;20509;-73
2023/02/01 08:18:05;;;;;;;12.20;7.70;;;8.80;99.90;;;;;;5053934;28;20423;-73
2023/02/01 08:20:31;;;;;;;11.60;6.97;;;8.70;99.90;;;;;;5049149;28;20185;-73
2023/02/01 08:22:57;;;;;;;9.20;4.93;;;8.70;99.90;;;;;;5052421;28;20404;-73
2023/02/01 08:25:23;;;;;;;11.00;6.53;;;8.70;99.90;;;;;;5052572;28;20415;-73
2023/02/01 08:27:50;;;;;;;9.30;6.37;;;8.70;99.90;;;;;;5051470;28;20899;-73
2023/02/01 08:30:15;;;;;;;10.43;6.43;;;8.60;99.90;;;;;;5052297;28;20412;-73
2023/02/01 08:32:41;;;;;;;14.60;10.03;;;8.60;99.90;;;;;;5052103;28;20474;-74
2023/02/01 08:35:08;;;;;;;14.93;7.20;;;8.60;99.90;;;;;;5052670;28;20478;-74
2023/02/01 08:37:33;;;;;;;11.77;6.07;;;8.60;99.90;;;;;;5051227;28;20269;-72
2023/02/01 08:39:59;;;;;;;11.97;7.60;;;8.60;99.90;;;;;;5052072;28;20559;-71
2023/02/01 08:45:10;;;;;;;12.87;6.50;;;8.40;99.90;;;;;;5052394;28;20501;-71
2023/02/01 08:47:35;;;;;;;10.73;7.33;;;8.40;99.90;;;;;;5051759;28;20443;-71
2023/02/01 08:50:01;;;;;;;17.73;7.10;;;8.40;99.90;;;;;;5032675;28;20486;-72
2023/02/01 08:52:27;;;;;;;13.80;7.20;;;8.40;99.90;;;;;;5045224;28;20264;-72
2023/02/01 08:54:53;;;;;;;13.97;6.77;;;8.40;99.90;;;;;;5032176;28;20596;-72
2023/02/01 08:57:18;;;;;;;10.37;6.47;;;8.40;99.90;;;;;;5040325;28;20478;-72
2023/02/01 08:59:44;;;;;;;12.97;7.20;;;8.40;99.90;;;;;;5051751;28;20227;-72
2023/02/01 09:02:15;;;;;;;9.10;6.50;;;8.40;99.90;;;;;;5034336;28;20225;-72
2023/02/01 09:04:41;;;;;;;15.53;6.80;;;8.30;99.90;;;;;;5051714;28;20215;-72
2023/02/01 09:07:08;;;;;;;14.37;6.47;;;8.50;99.90;;;;;;5034489;28;20589;-72
2023/02/01 09:09:34;;;;;;;12.30;7.07;;;8.40;99.90;;;;;;5042670;28;20920;-73
2023/02/01 09:11:59;;;;;;;16.23;7.90;;;8.40;99.90;;;;;;5032676;28;20421;-72
2023/02/01 09:14:25;;;;;;;14.33;7.17;;;8.40;99.90;;;;;;5032329;28;20212;-72
2023/02/01 09:16:51;;;;;;;12.30;7.00;;;8.50;99.90;;;;;;5043197;28;20271;-72
2023/02/01 09:19:16;;;;;;;10.57;6.93;;;8.50;99.90;;;;;;5042614;28;20182;-72
2023/02/01 09:21:44;;;;;;;12.77;7.97;;;8.50;99.90;;;;;;5034389;28;20683;-73
2023/02/01 09:24:11;;;;;;;14.07;7.17;;;8.40;99.90;;;;;;5051838;28;20178;-72
2023/02/01 09:26:37;;;;;;;12.53;7.50;;;8.40;99.90;;;;;;5051116;28;20545;-72
2023/02/01 09:29:03;;;;;;;17.57;8.83;;;8.40;99.90;;;;;;5051783;28;20416;-72
2023/02/01 09:31:30;;;;;;;9.10;6.30;;;8.40;99.90;;;;;;5053951;28;20416;-72
2023/02/01 09:33:56;;;;;;;12.00;6.80;;;8.40;99.90;;;;;;5055226;28;20396;-72
2023/02/01 09:36:23;;;;;;;12.97;8.40;;;8.50;99.90;;;;;;5037948;28;20428;-72
2023/02/01 09:38:51;;;;;;;10.63;7.13;;;8.60;99.90;;;;;;5054836;28;20423;-72
2023/02/01 09:41:44;;;;;;;13.33;7.40;;;8.70;99.90;;;;;;5061670;28;20458;-72
2023/02/01 09:44:41;;;;;;;18.00;8.27;;;8.60;99.90;;;;;;5075915;28;20423;-72
2023/02/01 09:47:19;;;;;;;13.00;8.37;;;8.50;99.90;;;;;;5074468;28;20850;-72
2023/02/01 09:50:03;;;;;;;10.77;7.10;;;8.60;99.90;;;;;;5073406;28;20923;-72
2023/02/01 09:52:41;;;;;;;14.17;6.97;;;8.50;99.90;;;;;;5074564;28;20446;-72
2023/02/01 09:55:23;;;;;;;12.00;6.80;;;8.50;99.90;;;;;;5074408;28;20414;-72
2023/02/01 09:58:00;;;;;;;12.00;6.40;;;8.50;99.90;;;;;;5073840;28;20418;-72
2023/02/01 10:00:31;;;;;;;10.13;7.50;;;8.60;99.90;;;;;;5075720;28;20407;-72
2023/02/01 10:02:57;;;;;;;14.27;6.70;;;8.50;99.90;;;;;;5074911;28;20902;-72
2023/02/01 10:06:02;;;;;;;16.60;7.30;;;8.60;99.90;;;;;;5075400;28;20418;-72
2023/02/01 10:08:46;;;;;;;11.70;7.30;;;8.60;99.90;;;;;;5074568;28;20622;-73
2023/02/01 10:11:47;;;;;;;13.30;7.83;;;8.70;99.90;;;;;;5075518;28;20854;-73
2023/02/01 10:14:44;;;;;;;9.77;7.37;;;8.60;99.90;;;;;;5042985;28;20447;-70
2023/02/01 10:17:28;;;;;;;10.23;8.97;;;8.60;99.90;;;;;;5075302;28;20400;-72
2023/02/01 10:20:20;;;;;;;11.47;8.00;;;8.60;99.90;;;;;;5073335;28;21001;-71
2023/02/01 10:22:50;;;;;;;8.93;7.00;;;8.70;99.90;;;;;;5074505;28;20395;-72
2023/02/01 10:25:43;;;;;;;13.17;7.50;;;8.70;99.90;;;;;;5075121;28;20395;-71
2023/02/01 10:28:15;;;;;;;11.33;7.57;;;8.80;99.90;;;;;;5075089;28;20447;-72
2023/02/01 10:30:45;;;;;;;13.80;7.53;;;8.70;99.90;;;;;;5072919;28;20392;-72
2023/02/01 10:33:23;;;;;;;17.07;7.00;;;8.70;99.90;;;;;;5074958;28;20529;-72
2023/02/01 10:35:55;;;;;;;11.10;6.57;;;8.80;99.90;;;;;;5074026;28;20891;-71
2023/02/01 10:38:32;;;;;;;12.50;6.17;;;8.80;99.90;;;;;;5075035;28;20805;-71
2023/02/01 10:41:23;;;;;;;10.30;6.17;;;8.80;99.90;;;;;;5045335;28;20547;-71
2023/02/01 10:43:56;;;;;;;14.27;7.50;;;8.80;99.90;;;;;;5034079;28;20436;-71
2023/02/01 10:46:26;;;;;;;10.70;5.60;;;8.80;99.90;;;;;;5034655;28;20457;-71
2023/02/01 10:48:55;;;;;;;8.40;7.50;;;8.70;99.90;;;;;;5033656;28;20806;-71
2023/02/01 10:51:29;;;;;;;15.33;6.50;;;8.80;99.90;;;;;;5016879;28;20424;-71
2023/02/01 10:54:02;;;;;;;13.67;5.77;;;8.80;99.90;;;;;;5034231;28;20481;-71
2023/02/01 10:56:29;;;;;;;8.90;5.10;;;8.70;99.90;;;;;;5034268;28;20917;-70
2023/02/01 10:59:14;;;;;;;8.07;6.40;;;8.80;99.90;;;;;;5016138;28;20424;-72
2023/02/01 11:01:42;;;;;;;11.20;5.67;;;8.80;99.90;;;;;;5033565;28;20398;-72
2023/02/01 11:04:15;;;;;;;14.27;8.13;;;8.80;99.90;;;;;;5034264;28;20435;-72
2023/02/01 11:06:43;;;;;;;11.37;6.47;;;8.70;99.90;;;;;;5033639;28;20481;-72
2023/02/01 11:09:09;;;;;;;11.40;6.40;;;8.80;99.90;;;;;;5034552;28;20413;-71
2023/02/01 11:11:47;;;;;;;12.07;7.83;;;8.80;99.90;;;;;;5054039;28;20455;-71
2023/02/01 11:14:25;;;;;;;13.53;7.00;;;8.90;99.90;;;;;;5053838;28;20182;-71
2023/02/01 11:17:11;;;;;;;7.80;6.47;;;8.80;99.90;;;;;;5035306;28;20485;-72
2023/02/01 11:19:38;;;;;;;9.07;5.90;;;8.80;99.90;;;;;;5054115;28;20420;-72
2023/02/01 11:22:05;;;;;;;12.20;6.60;;;8.80;99.90;;;;;;5053751;28;20447;-72
2023/02/01 11:24:33;;;;;;;7.50;5.57;;;8.70;99.90;;;;;;5053435;28;20443;-72
2023/02/01 11:27:02;;;;;;;11.80;7.33;;;8.70;99.90;;;;;;5052882;28;20466;-72
2023/02/01 11:29:42;;;;;;;11.33;7.40;;;8.60;99.90;;;;;;5053658;28;20872;-72
2023/02/01 11:32:13;;;;;;;13.97;5.23;;;8.60;99.90;;;;;;5054121;28;20405;-72
2023/02/01 11:34:44;;;;;;;10.60;6.47;;;8.70;99.90;;;;;;5053263;28;20439;-74
2023/02/01 11:37:18;;;;;;;9.53;5.10;;;8.80;99.90;;;;;;5053737;28;20454;-72
2023/02/01 11:40:09;;;;;;;10.53;6.13;;;8.80;99.90;;;;;;5031648;28;20954;-72
2023/02/01 11:42:34;;;;;;;9.63;6.23;;;8.80;99.90;;;;;;5053470;28;20431;-72
2023/02/01 11:45:24;;;;;;;11.60;7.13;;;8.80;99.90;;;;;;5052659;28;20412;-72
2023/02/01 11:47:54;;;;;;;9.57;7.07;;;8.80;99.90;;;;;;5034952;28;20189;-72
2023/02/01 11:50:41;;;;;;;11.13;6.20;;;8.80;99.90;;;;;;5035839;28;20843;-72
2023/02/01 11:53:34;;;;;;;9.87;5.53;;;8.80;99.90;;;;;;5050573;28;20405;-72
2023/02/01 11:56:37;;;;;;;9.20;4.60;;;8.80;99.90;;;;;;5052505;28;20786;-72
2023/02/01 11:59:31;;;;;;;13.60;5.23;;;8.90;99.90;;;;;;5052678;28;20821;-72
2023/02/01 12:02:46;;;;;;;10.73;5.70;;;8.90;99.90;;;;;;5052138;28;20450;-73
2023/02/01 12:05:24;;;;;;;8.77;4.83;;;8.90;99.90;;;;;;5010493;28;20424;-72
2023/02/01 12:08:08;;;;;;;9.60;7.30;;;8.90;99.90;;;;;;5052477;28;20447;-72
2023/02/01 12:11:02;;;;;;;7.70;5.50;;;8.90;99.90;;;;;;5052700;28;20481;-72
2023/02/01 12:13:54;;;;;;;12.00;6.10;;;8.90;99.90;;;;;;4998066;28;20912;-72
2023/02/01 12:16:31;;;;;;;9.40;4.70;;;8.90;99.90;;;;;;5027853;28;20441;-72
2023/02/01 12:19:02;;;;;;;9.20;5.03;;;8.90;99.90;;;;;;5032360;28;20394;-72
2023/02/01 12:21:56;;;;;;;10.13;4.90;;;8.80;99.90;;;;;;5032999;28;20405;-72
2023/02/01 12:24:36;;;;;;;14.47;6.10;;;8.80;99.90;;;;;;5033064;28;20393;-72
2023/02/01 12:27:08;;;;;;;9.87;6.57;;;8.70;99.90;;;;;;5032155;28;21007;-72
2023/02/01 12:29:55;;;;;;;8.03;6.43;;;8.70;99.90;;;;;;5032449;28;20757;-72
2023/02/01 12:32:49;;;;;;;12.00;6.10;;;8.60;99.90;;;;;;5032510;28;20426;-72
2023/02/01 12:35:26;;;;;;;16.20;6.20;;;8.60;99.90;;;;;;5032406;28;20421;-72
2023/02/01 12:38:30;;;;;;;9.93;5.80;;;8.60;99.90;;;;;;5032183;28;20519;-73
2023/02/01 12:41:15;;;;;;;8.40;5.90;;;8.60;99.90;;;;;;5022254;28;20948;-72
2023/02/01 12:44:06;;;;;;;8.30;5.63;;;8.50;99.90;;;;;;5014646;28;20925;-72
2023/02/01 12:46:44;;;;;;;11.43;7.80;;;8.60;99.90;;;;;;5039367;28;20495;-72
2023/02/01 12:49:16;;;;;;;10.63;7.07;;;8.70;99.90;;;;;;5051841;28;20440;-72
2023/02/01 12:51:45;;;;;;;8.10;6.97;;;8.80;99.90;;;;;;5052442;28;20493;-72
2023/02/01 12:54:31;;;;;;;6.63;5.40;;;8.70;99.90;;;;;;5052224;28;20412;-73
2023/02/01 12:57:05;;;;;;;11.03;6.47;;;8.70;99.90;;;;;;5051884;28;20392;-73
2023/02/01 12:59:51;;;;;;;15.27;5.90;;;8.70;99.90;;;;;;5052178;28;20430;-73
2023/02/01 13:02:33;;;;;;;7.57;5.60;;;8.70;99.90;;;;;;5034568;28;20778;-73
2023/02/01 13:05:16;;;;;;;7.60;6.90;;;8.70;99.90;;;;;;5052621;28;20796;-73
2023/02/01 13:08:07;;;;;;;10.80;5.70;;;8.70;99.90;;;;;;5056593;28;20811;-71
2023/02/01 13:10:53;;;;;;;9.33;5.33;;;8.70;99.90;;;;;;5056584;28;20438;-73
2023/02/01 13:13:40;;;;;;;17.33;6.47;;;8.70;99.90;;;;;;5038860;28;20486;-73
2023/02/01 13:16:28;;;;;;;8.40;5.03;;;8.70;99.90;;;;;;5053672;28;20819;-73
2023/02/01 13:19:03;;;;;;;7.50;5.30;;;8.80;99.90;;;;;;5054451;28;20490;-73
2023/02/01 13:21:34;;;;;;;11.60;6.90;;;8.80;99.90;;;;;;5038472;28;20419;-72
2023/02/01 13:23:59;;;;;;;15.23;6.70;;;8.90;99.90;;;;;;5055333;28;20423;-72
2023/02/01 13:26:25;;;;;;;14.50;6.33;;;8.80;99.90;;;;;;5056167;28;20489;-73
2023/02/01 13:29:06;;;;;;;10.77;6.20;;;8.90;99.90;;;;;;5055486;28;20190;-73
2023/02/01 13:32:02;;;;;;;10.43;5.67;;;8.80;99.90;;;;;;5055921;28;20175;-73
2023/02/01 13:34:54;;;;;;;15.93;5.90;;;8.80;99.90;;;;;;5055790;28;20411;-72
2023/02/01 13:37:56;;;;;;;9.00;5.33;;;8.80;99.90;;;;;;5054794;28;20470;-72
2023/02/01 13:40:50;;;;;;;9.57;6.07;;;8.70;99.90;;;;;;5055662;28;20890;-72
2023/02/01 13:43:22;;;;;;;8.97;4.90;;;8.80;99.90;;;;;;5055929;28;20511;-72
2023/02/01 13:45:51;;;;;;;8.67;5.23;;;8.70;99.90;;;;;;5054137;28;20405;-73